Time;durP1;ratioP1;P1;durP2;ratioP2;P2;SDS_P1;SDS_P2;PMS_P1;PMS_P2;Temp;Humidity;BMP_temperature;BMP_pressure;BME280_temperature;BME280_humidity;BME280_pressure;Samples;Min_cycle;Max_cycle;Signal;HPM_P1;HPM_P2
2023/08/06 00:01:36;;;;;;;42.35;5.82;;;;;;;;;;4916376;29;20131;-80
2023/08/06 00:04:01;;;;;;;39.05;6.97;;;;;;;;;;4909198;29;20508;-82
2023/08/06 00:06:27;;;;;;;42.70;7.07;;;;;;;;;;4909717;29;20353;-82
2023/08/06 00:08:52;;;;;;;43.47;7.30;;;;;;;;;;4917443;29;20045;-81
2023/08/06 00:11:17;;;;;;;44.10;7.50;;;;;;;;;;4899398;29;20044;-82
2023/08/06 00:13:43;;;;;;;51.15;7.70;;;;;;;;;;4917028;29;20660;-82
2023/08/06 00:16:10;;;;;;;38.28;6.57;;;;;;;;;;4916529;29;20044;-81
2023/08/06 00:18:35;;;;;;;39.15;6.50;;;;;;;;;;4917028;29;20048;-82
2023/08/06 00:21:00;;;;;;;42.25;6.82;;;;;;;;;;4900278;29;20070;-82
2023/08/06 00:23:26;;;;;;;42.03;6.55;;;;;;;;;;4916289;29;20048;-82
2023/08/06 00:25:51;;;;;;;43.83;6.93;;;;;;;;;;4916603;29;20040;-81
2023/08/06 00:28:17;;;;;;;40.30;6.50;;;;;;;;;;4916494;29;20473;-81
2023/08/06 00:30:42;;;;;;;43.60;7.00;;;;;;;;;;4916811;29;20071;-82
2023/08/06 00:33:07;;;;;;;43.88;6.90;;;;;;;;;;4915846;29;20052;-81
2023/08/06 00:35:32;;;;;;;44.08;6.88;;;;;;;;;;4917096;29;20074;-82
2023/08/06 00:37:58;;;;;;;39.17;6.78;;;;;;;;;;4916519;29;20066;-83
2023/08/06 00:40:23;;;;;;;44.22;6.65;;;;;;;;;;4916054;29;20044;-82
2023/08/06 00:42:49;;;;;;;47.63;7.63;;;;;;;;;;4917262;29;20051;-81
2023/08/06 00:45:14;;;;;;;43.92;6.00;;;;;;;;;;4915847;29;20040;-82
2023/08/06 00:47:40;;;;;;;49.65;7.50;;;;;;;;;;4916605;29;20044;-82
2023/08/06 00:50:07;;;;;;;35.90;6.45;;;;;;;;;;4916212;29;20111;-81
2023/08/06 00:52:33;;;;;;;43.85;7.05;;;;;;;;;;4916466;29;20044;-82
2023/08/06 00:54:59;;;;;;;41.35;7.22;;;;;;;;;;4916130;29;20408;-82
2023/08/06 00:57:25;;;;;;;48.45;6.82;;;;;;;;;;4915930;29;20051;-82
2023/08/06 00:59:51;;;;;;;44.17;7.30;;;;;;;;;;4908137;29;20048;-80
2023/08/06 01:02:16;;;;;;;37.10;6.40;;;;;;;;;;4905473;29;20052;-82
2023/08/06 01:04:42;;;;;;;40.47;6.85;;;;;;;;;;4915878;29;20136;-81
2023/08/06 01:07:13;;;;;;;54.90;9.13;;;;;;;;;;4915982;29;20679;-81
2023/08/06 01:10:06;;;;;;;37.53;6.60;;;;;;;;;;4916198;29;20048;-82
2023/08/06 01:12:48;;;;;;;40.65;6.90;;;;;;;;;;4898410;29;20424;-81
2023/08/06 01:15:27;;;;;;;33.15;6.35;;;;;;;;;;4915734;29;20532;-80
2023/08/06 01:17:53;;;;;;;43.58;6.55;;;;;;;;;;4915737;29;20067;-82
2023/08/06 01:20:19;;;;;;;36.53;6.13;;;;;;;;;;4915634;29;20078;-80
2023/08/06 01:22:44;;;;;;;45.47;7.07;;;;;;;;;;4915553;29;20044;-81
2023/08/06 01:25:10;;;;;;;39.80;7.28;;;;;;;;;;4898513;29;20040;-81
2023/08/06 01:27:43;;;;;;;44.80;5.95;;;;;;;;;;4916320;29;20048;-80
2023/08/06 01:30:22;;;;;;;46.47;6.88;;;;;;;;;;4915260;29;20047;-81
2023/08/06 01:32:50;;;;;;;41.05;6.75;;;;;;;;;;4915820;29;20068;-81
2023/08/06 01:35:17;;;;;;;30.30;6.63;;;;;;;;;;4915475;29;20055;-82
2023/08/06 01:37:43;;;;;;;42.00;6.93;;;;;;;;;;4915164;29;20466;-81
2023/08/06 01:40:12;;;;;;;45.47;6.53;;;;;;;;;;4914908;29;20143;-82
2023/08/06 01:42:38;;;;;;;40.50;6.07;;;;;;;;;;4915710;29;20074;-81
2023/08/06 01:45:05;;;;;;;34.72;6.65;;;;;;;;;;4915752;29;20040;-82
2023/08/06 01:47:31;;;;;;;41.33;6.82;;;;;;;;;;4915174;29;20051;-82
2023/08/06 01:49:56;;;;;;;37.90;6.45;;;;;;;;;;4915484;29;20036;-82
2023/08/06 01:52:21;;;;;;;36.40;6.30;;;;;;;;;;4914776;29;20103;-81
2023/08/06 01:54:47;;;;;;;48.10;6.95;;;;;;;;;;4915821;29;20445;-81
2023/08/06 01:57:12;;;;;;;37.95;6.82;;;;;;;;;;4914796;29;20040;-81
2023/08/06 01:59:37;;;;;;;38.45;7.10;;;;;;;;;;4910740;29;20127;-81
2023/08/06 02:02:03;;;;;;;46.10;6.82;;;;;;;;;;4914934;29;20052;-81
2023/08/06 02:04:28;;;;;;;34.83;6.28;;;;;;;;;;4915422;29;20044;-80
2023/08/06 02:06:54;;;;;;;33.90;6.30;;;;;;;;;;4914873;29;20458;-82
2023/08/06 02:09:19;;;;;;;35.72;6.47;;;;;;;;;;4914259;29;20044;-80
2023/08/06 02:11:44;;;;;;;41.13;6.88;;;;;;;;;;4915124;29;20497;-82
2023/08/06 02:14:10;;;;;;;39.38;6.47;;;;;;;;;;4897507;29;20040;-82
2023/08/06 02:16:35;;;;;;;38.40;6.32;;;;;;;;;;4914217;29;20136;-81
2023/08/06 02:19:01;;;;;;;36.78;6.28;;;;;;;;;;4915043;29;20050;-81
2023/08/06 02:21:26;;;;;;;41.45;6.18;;;;;;;;;;4914362;29;20051;-82
2023/08/06 02:23:51;;;;;;;35.30;6.03;;;;;;;;;;4914871;29;20107;-81
2023/08/06 02:26:17;;;;;;;35.72;6.68;;;;;;;;;;4897382;29;20096;-81
2023/08/06 02:28:42;;;;;;;37.60;6.80;;;;;;;;;;4914464;29;20164;-82
2023/08/06 02:31:07;;;;;;;28.02;5.75;;;;;;;;;;4914228;29;20076;-81
2023/08/06 02:33:33;;;;;;;38.28;7.13;;;;;;;;;;4914433;29;20502;-82
2023/08/06 02:36:03;;;;;;;30.30;5.60;;;;;;;;;;4914982;29;20127;-82
2023/08/06 02:38:29;;;;;;;31.95;5.90;;;;;;;;;;4914154;29;20076;-82
2023/08/06 02:40:54;;;;;;;39.75;7.20;;;;;;;;;;4914457;29;20517;-82
2023/08/06 02:43:20;;;;;;;28.55;5.88;;;;;;;;;;4914403;29;20071;-81
2023/08/06 02:45:45;;;;;;;38.70;6.63;;;;;;;;;;4914605;29;20074;-82
2023/08/06 02:48:11;;;;;;;43.97;6.63;;;;;;;;;;4914417;29;20401;-82
2023/08/06 02:50:40;;;;;;;35.95;6.20;;;;;;;;;;4897313;29;20044;-81
2023/08/06 02:53:07;;;;;;;45.65;7.00;;;;;;;;;;4897049;29;20044;-80
2023/08/06 02:55:33;;;;;;;42.00;6.47;;;;;;;;;;4914695;29;20040;-82
2023/08/06 02:57:59;;;;;;;38.17;7.05;;;;;;;;;;4908845;29;20051;-82
2023/08/06 03:00:25;;;;;;;31.30;5.45;;;;;;;;;;4895858;29;20052;-82
2023/08/06 03:02:50;;;;;;;37.88;7.30;;;;;;;;;;4914333;29;20063;-82
2023/08/06 03:05:16;;;;;;;33.60;6.15;;;;;;;;;;4913498;29;20055;-82
2023/08/06 03:07:41;;;;;;;39.88;5.85;;;;;;;;;;4914938;29;20064;-81
2023/08/06 03:10:07;;;;;;;36.33;6.20;;;;;;;;;;4913444;29;20512;-81
2023/08/06 03:12:32;;;;;;;33.03;6.63;;;;;;;;;;4913825;29;20184;-82
2023/08/06 03:14:58;;;;;;;39.88;7.30;;;;;;;;;;4914550;29;20091;-82
2023/08/06 03:17:23;;;;;;;30.58;5.43;;;;;;;;;;4914048;29;20059;-82
2023/08/06 03:19:48;;;;;;;39.72;6.78;;;;;;;;;;4914122;29;20127;-82
2023/08/06 03:22:14;;;;;;;37.67;6.00;;;;;;;;;;4914122;29;20040;-82
2023/08/06 03:24:39;;;;;;;32.95;6.45;;;;;;;;;;4914380;29;20420;-82
2023/08/06 03:27:05;;;;;;;40.53;6.80;;;;;;;;;;4914246;29;20040;-80
2023/08/06 03:29:30;;;;;;;27.90;5.80;;;;;;;;;;4918029;29;20044;-82
2023/08/06 03:31:55;;;;;;;35.55;5.78;;;;;;;;;;4917399;29;20044;-82
2023/08/06 03:34:21;;;;;;;34.00;5.68;;;;;;;;;;4917776;29;20048;-82
2023/08/06 03:36:47;;;;;;;35.58;7.03;;;;;;;;;;4917895;29;20540;-81
2023/08/06 03:39:13;;;;;;;35.83;5.25;;;;;;;;;;4916917;29;20056;-81
2023/08/06 03:41:39;;;;;;;39.25;6.88;;;;;;;;;;4917644;29;20233;-81
2023/08/06 03:44:04;;;;;;;32.72;5.88;;;;;;;;;;4917938;29;20140;-80
2023/08/06 03:46:33;;;;;;;28.02;5.25;;;;;;;;;;4917232;29;20060;-81
2023/08/06 03:48:59;;;;;;;44.08;6.30;;;;;;;;;;4917377;29;20052;-82
2023/08/06 03:51:24;;;;;;;35.13;5.80;;;;;;;;;;4917638;29;20048;-81
2023/08/06 03:53:49;;;;;;;32.13;6.18;;;;;;;;;;4917432;29;20048;-82
2023/08/06 03:56:15;;;;;;;41.65;5.97;;;;;;;;;;4900116;29;20131;-82
2023/08/06 03:58:40;;;;;;;31.60;5.70;;;;;;;;;;4908866;29;20631;-82
2023/08/06 04:01:05;;;;;;;31.75;5.90;;;;;;;;;;4899944;29;20055;-82
2023/08/06 04:03:31;;;;;;;24.17;5.55;;;;;;;;;;4917511;29;20103;-81
2023/08/06 04:05:56;;;;;;;31.83;6.18;;;;;;;;;;4917549;29;20095;-81
2023/08/06 04:08:22;;;;;;;37.03;6.88;;;;;;;;;;4916753;29;20040;-81
2023/08/06 04:10:52;;;;;;;29.92;5.88;;;;;;;;;;4898608;29;20051;-81
2023/08/06 04:13:18;;;;;;;36.10;7.05;;;;;;;;;;4898388;29;20139;-81
2023/08/06 04:15:43;;;;;;;35.28;6.95;;;;;;;;;;4881387;29;20131;-81
2023/08/06 04:18:08;;;;;;;38.53;6.30;;;;;;;;;;4898115;29;20071;-82
2023/08/06 04:20:34;;;;;;;38.13;7.00;;;;;;;;;;4915219;29;20039;-81
2023/08/06 04:23:05;;;;;;;39.00;6.05;;;;;;;;;;4917355;29;20107;-81
2023/08/06 04:25:31;;;;;;;44.55;5.90;;;;;;;;;;4917147;29;20048;-80
2023/08/06 04:27:56;;;;;;;27.35;5.78;;;;;;;;;;4900111;29;20072;-81
2023/08/06 04:30:22;;;;;;;40.17;6.07;;;;;;;;;;4916234;29;20528;-80
2023/08/06 04:32:50;;;;;;;33.42;5.75;;;;;;;;;;4917355;29;20048;-81
2023/08/06 04:35:15;;;;;;;34.10;5.75;;;;;;;;;;4916322;29;20040;-81
2023/08/06 04:37:41;;;;;;;46.17;7.32;;;;;;;;;;4917376;29;20040;-81
2023/08/06 04:40:07;;;;;;;33.40;5.75;;;;;;;;;;4916053;29;20040;-81
2023/08/06 04:42:32;;;;;;;40.90;7.15;;;;;;;;;;4917474;29;20068;-81
2023/08/06 04:44:57;;;;;;;34.67;6.30;;;;;;;;;;4916724;29;20080;-82
2023/08/06 04:47:23;;;;;;;35.35;6.13;;;;;;;;;;4916194;29;20528;-81
2023/08/06 04:49:48;;;;;;;36.97;6.25;;;;;;;;;;4916811;29;20044;-82
2023/08/06 04:52:14;;;;;;;33.35;6.00;;;;;;;;;;4916328;29;20119;-81
2023/08/06 04:54:39;;;;;;;31.42;6.13;;;;;;;;;;4917069;29;20457;-80
2023/08/06 04:57:05;;;;;;;35.65;6.22;;;;;;;;;;4915999;29;20036;-80
2023/08/06 04:59:30;;;;;;;31.50;5.55;;;;;;;;;;4904917;29;20051;-81
2023/08/06 05:01:55;;;;;;;37.00;5.80;;;;;;;;;;4916576;29;20055;-80
2023/08/06 05:04:21;;;;;;;39.22;5.45;;;;;;;;;;4915629;29;20051;-82
2023/08/06 05:06:48;;;;;;;40.80;6.82;;;;;;;;;;4916631;29;20036;-81
2023/08/06 05:09:13;;;;;;;32.20;5.97;;;;;;;;;;4916146;29;20044;-82
2023/08/06 05:11:38;;;;;;;35.28;5.93;;;;;;;;;;4916240;29;20044;-81
2023/08/06 05:14:04;;;;;;;39.08;5.93;;;;;;;;;;4898597;29;20445;-80
2023/08/06 05:16:29;;;;;;;35.35;6.28;;;;;;;;;;4916584;29;20055;-81
2023/08/06 05:18:54;;;;;;;27.40;5.70;;;;;;;;;;4916599;29;20102;-82
2023/08/06 05:21:20;;;;;;;34.63;5.80;;;;;;;;;;4915575;29;20052;-82
2023/08/06 05:23:45;;;;;;;36.33;5.38;;;;;;;;;;4915932;29;20040;-81
2023/08/06 05:26:10;;;;;;;33.13;5.32;;;;;;;;;;4916051;29;20060;-82
2023/08/06 05:28:36;;;;;;;32.70;5.45;;;;;;;;;;4915976;29;20055;-81
2023/08/06 05:31:04;;;;;;;44.10;6.57;;;;;;;;;;4916276;29;20475;-81
2023/08/06 05:33:30;;;;;;;37.40;6.15;;;;;;;;;;4915351;29;20469;-82
2023/08/06 05:35:55;;;;;;;27.45;5.22;;;;;;;;;;4915916;29;20051;-82
2023/08/06 05:38:21;;;;;;;32.47;4.68;;;;;;;;;;4898770;29;20045;-82
2023/08/06 05:40:47;;;;;;;29.95;5.50;;;;;;;;;;4898636;29;20067;-82
2023/08/06 05:43:12;;;;;;;37.10;6.05;;;;;;;;;;4915176;29;20123;-83
2023/08/06 05:45:38;;;;;;;36.17;5.60;;;;;;;;;;4915796;29;20151;-82
2023/08/06 05:48:03;;;;;;;39.55;7.63;;;;;;;;;;4915567;29;20040;-82
2023/08/06 05:50:29;;;;;;;29.60;5.43;;;;;;;;;;4915133;29;20569;-82
2023/08/06 05:52:54;;;;;;;33.42;5.68;;;;;;;;;;4915210;29;20067;-81
2023/08/06 05:55:20;;;;;;;28.77;5.13;;;;;;;;;;4904301;29;20052;-82
2023/08/06 05:57:46;;;;;;;29.75;5.45;;;;;;;;;;4903076;29;20060;-83
2023/08/06 06:00:12;;;;;;;27.88;5.50;;;;;;;;;;4899751;29;20051;-81
2023/08/06 06:02:37;;;;;;;38.60;5.20;;;;;;;;;;4914226;29;20127;-82
2023/08/06 06:05:03;;;;;;;40.63;5.93;;;;;;;;;;4909444;29;20044;-82
2023/08/06 06:07:28;;;;;;;37.03;5.43;;;;;;;;;;4908375;29;20583;-83
2023/08/06 06:09:53;;;;;;;32.88;5.70;;;;;;;;;;4891490;29;20044;-82
2023/08/06 06:12:19;;;;;;;31.80;5.30;;;;;;;;;;4907649;29;20581;-82
2023/08/06 06:14:44;;;;;;;28.73;5.68;;;;;;;;;;4908722;29;20139;-80
2023/08/06 06:17:10;;;;;;;32.78;5.72;;;;;;;;;;4907126;29;20040;-82
2023/08/06 06:19:35;;;;;;;31.92;6.22;;;;;;;;;;4908825;29;20155;-81
2023/08/06 06:22:00;;;;;;;26.77;5.18;;;;;;;;;;4908123;29;20103;-83
2023/08/06 06:24:26;;;;;;;39.65;5.40;;;;;;;;;;4907561;29;20509;-83
2023/08/06 06:26:51;;;;;;;28.52;4.70;;;;;;;;;;4908516;29;20040;-82
2023/08/06 06:29:16;;;;;;;29.98;5.18;;;;;;;;;;4907535;29;20119;-84
2023/08/06 06:31:42;;;;;;;30.45;4.90;;;;;;;;;;4907862;29;20051;-83
2023/08/06 06:34:07;;;;;;;30.08;5.63;;;;;;;;;;4890303;29;20059;-84
2023/08/06 06:36:32;;;;;;;35.35;5.05;;;;;;;;;;4908116;29;20044;-84
2023/08/06 06:38:58;;;;;;;31.73;5.35;;;;;;;;;;4908426;29;20055;-82
2023/08/06 06:41:24;;;;;;;32.33;5.15;;;;;;;;;;4908013;29;20076;-82
2023/08/06 06:43:49;;;;;;;30.63;5.50;;;;;;;;;;4907443;29;20048;-81
2023/08/06 06:46:14;;;;;;;26.45;5.40;;;;;;;;;;4907321;29;20047;-80
2023/08/06 06:48:40;;;;;;;26.77;5.30;;;;;;;;;;4908353;29;20092;-81
2023/08/06 06:51:05;;;;;;;29.10;4.70;;;;;;;;;;4907311;29;20059;-80
2023/08/06 06:53:30;;;;;;;24.80;5.00;;;;;;;;;;4907895;29;20462;-81
2023/08/06 06:56:04;;;;;;;27.23;4.82;;;;;;;;;;4907917;29;20135;-81
2023/08/06 06:58:30;;;;;;;38.65;5.75;;;;;;;;;;4898126;29;20058;-83
2023/08/06 07:00:56;;;;;;;29.50;5.32;;;;;;;;;;4905271;29;20517;-81
2023/08/06 07:03:21;;;;;;;26.30;5.00;;;;;;;;;;4900926;29;20055;-80
2023/08/06 07:05:47;;;;;;;28.15;4.90;;;;;;;;;;4907820;29;20085;-81
2023/08/06 07:08:12;;;;;;;24.90;5.22;;;;;;;;;;4907600;29;20402;-81
2023/08/06 07:10:40;;;;;;;24.67;5.32;;;;;;;;;;4890448;29;20067;-82
2023/08/06 07:13:06;;;;;;;32.75;4.78;;;;;;;;;;4907488;29;20461;-80
2023/08/06 07:15:31;;;;;;;25.90;4.95;;;;;;;;;;4906570;29;20051;-82
2023/08/06 07:17:57;;;;;;;28.70;4.30;;;;;;;;;;4907704;29;20579;-81
2023/08/06 07:20:22;;;;;;;29.42;4.50;;;;;;;;;;4907051;29;20071;-81
2023/08/06 07:22:47;;;;;;;22.02;4.15;;;;;;;;;;4908436;29;20048;-81
2023/08/06 07:25:13;;;;;;;22.50;4.13;;;;;;;;;;4907616;29;20142;-81
2023/08/06 07:27:38;;;;;;;18.58;4.03;;;;;;;;;;4908608;29;20127;-82
2023/08/06 07:30:05;;;;;;;22.08;4.40;;;;;;;;;;4907364;29;20774;-83
2023/08/06 07:32:30;;;;;;;23.10;4.43;;;;;;;;;;4907589;29;20123;-81
2023/08/06 07:34:59;;;;;;;23.83;4.38;;;;;;;;;;4907812;29;20100;-82
2023/08/06 07:37:25;;;;;;;19.23;4.15;;;;;;;;;;4907086;29;20067;-82
2023/08/06 07:39:50;;;;;;;24.90;3.70;;;;;;;;;;4901021;29;20048;-84
2023/08/06 07:42:16;;;;;;;14.60;3.78;;;;;;;;;;4898674;29;20048;-81
2023/08/06 07:44:41;;;;;;;20.17;3.72;;;;;;;;;;4908249;29;20040;-80
2023/08/06 07:47:06;;;;;;;21.73;4.07;;;;;;;;;;4890851;29;20049;-83
2023/08/06 07:49:32;;;;;;;19.10;4.13;;;;;;;;;;4897573;29;20112;-82
2023/08/06 07:51:57;;;;;;;20.05;3.95;;;;;;;;;;4908204;29;20055;-80
2023/08/06 07:54:24;;;;;;;20.27;4.18;;;;;;;;;;4906765;29;20055;-82
2023/08/06 07:56:49;;;;;;;14.02;3.42;;;;;;;;;;4906953;29;20072;-82
2023/08/06 07:59:15;;;;;;;19.00;4.22;;;;;;;;;;4901737;29;20601;-81
2023/08/06 08:01:40;;;;;;;16.63;3.88;;;;;;;;;;4888465;29;20044;-82
2023/08/06 08:04:06;;;;;;;17.85;3.35;;;;;;;;;;4905423;29;20107;-81
2023/08/06 08:06:31;;;;;;;25.58;4.38;;;;;;;;;;4894536;29;20184;-82
2023/08/06 08:08:56;;;;;;;22.92;4.28;;;;;;;;;;4909814;29;20047;-81
2023/08/06 08:11:22;;;;;;;18.88;3.80;;;;;;;;;;4912518;29;20055;-81
2023/08/06 08:13:47;;;;;;;16.33;3.60;;;;;;;;;;4910449;29;20557;-82
2023/08/06 08:16:13;;;;;;;11.80;2.80;;;;;;;;;;4897810;29;20571;-81
2023/08/06 08:18:38;;;;;;;15.75;3.47;;;;;;;;;;4911038;29;20048;-80
2023/08/06 08:21:03;;;;;;;24.38;4.72;;;;;;;;;;4916737;29;20052;-81
2023/08/06 08:23:31;;;;;;;15.02;3.50;;;;;;;;;;4916833;29;20048;-81
2023/08/06 08:25:56;;;;;;;15.15;3.53;;;;;;;;;;4916649;29;20051;-81
2023/08/06 08:28:22;;;;;;;14.40;3.28;;;;;;;;;;4915896;29;20044;-82
2023/08/06 08:30:47;;;;;;;12.73;3.03;;;;;;;;;;4916469;29;20052;-82
2023/08/06 08:33:13;;;;;;;13.93;3.55;;;;;;;;;;4916483;29;20048;-81
2023/08/06 08:35:38;;;;;;;17.00;3.30;;;;;;;;;;4900258;29;20044;-81
2023/08/06 08:38:03;;;;;;;15.93;2.85;;;;;;;;;;4916917;29;20048;-81
2023/08/06 08:40:32;;;;;;;16.48;3.45;;;;;;;;;;4916314;29;20044;-81
2023/08/06 08:42:58;;;;;;;17.83;3.20;;;;;;;;;;4916507;29;20036;-82
2023/08/06 08:45:26;;;;;;;21.65;3.78;;;;;;;;;;4916130;29;20425;-82
2023/08/06 08:47:52;;;;;;;17.33;2.97;;;;;;;;;;4915119;29;20041;-80
2023/08/06 08:50:19;;;;;;;13.10;3.20;;;;;;;;;;4915763;29;20641;-81
2023/08/06 08:52:45;;;;;;;19.63;3.22;;;;;;;;;;4916184;29;20040;-81
2023/08/06 08:55:13;;;;;;;14.65;2.95;;;;;;;;;;4916013;29;20052;-82
2023/08/06 08:57:39;;;;;;;9.35;2.65;;;;;;;;;;4915543;29;20048;-81
2023/08/06 09:00:05;;;;;;;15.40;3.33;;;;;;;;;;4902729;29;20063;-80
2023/08/06 09:02:33;;;;;;;14.27;3.13;;;;;;;;;;4914830;29;20040;-80
2023/08/06 09:05:02;;;;;;;10.13;2.38;;;;;;;;;;4916561;29;20051;-82
2023/08/06 09:07:31;;;;;;;8.13;2.63;;;;;;;;;;4914763;29;20511;-82
2023/08/06 09:09:59;;;;;;;7.50;2.20;;;;;;;;;;4915269;29;20058;-83
2023/08/06 09:12:25;;;;;;;15.10;2.72;;;;;;;;;;4915391;29;20450;-82
2023/08/06 09:14:50;;;;;;;9.38;2.78;;;;;;;;;;4916531;29;20040;-83
2023/08/06 09:17:19;;;;;;;12.20;2.85;;;;;;;;;;4898436;29;20135;-85
2023/08/06 09:19:46;;;;;;;11.07;2.90;;;;;;;;;;4915681;29;20458;-85
2023/08/06 09:22:13;;;;;;;11.75;2.47;;;;;;;;;;4913479;29;20082;-86
2023/08/06 09:24:40;;;;;;;7.32;2.25;;;;;;;;;;4915236;29;20066;-84
2023/08/06 09:27:10;;;;;;;12.57;2.92;;;;;;;;;;4915634;29;20040;-81
2023/08/06 09:29:40;;;;;;;14.85;3.13;;;;;;;;;;4915898;29;20036;-81
2023/08/06 09:32:06;;;;;;;12.15;2.03;;;;;;;;;;4915284;29;20056;-84
2023/08/06 09:34:31;;;;;;;14.57;2.35;;;;;;;;;;4915344;29;20123;-82
2023/08/06 09:36:56;;;;;;;8.50;2.65;;;;;;;;;;4916021;29;20042;-82
2023/08/06 09:39:27;;;;;;;10.90;2.50;;;;;;;;;;4915118;29;20509;-81
2023/08/06 09:41:57;;;;;;;9.45;2.50;;;;;;;;;;4914896;29;20575;-80
2023/08/06 09:44:25;;;;;;;10.05;2.45;;;;;;;;;;4914632;29;20052;-79
2023/08/06 09:46:52;;;;;;;8.35;2.58;;;;;;;;;;4913322;29;20044;-80
2023/08/06 09:49:19;;;;;;;11.17;2.33;;;;;;;;;;4914705;29;20143;-81
2023/08/06 09:51:51;;;;;;;13.02;2.30;;;;;;;;;;4915677;29;20048;-81
2023/08/06 09:54:18;;;;;;;11.43;2.47;;;;;;;;;;4915276;29;20055;-81
2023/08/06 09:56:44;;;;;;;12.43;2.50;;;;;;;;;;4915239;29;20099;-80
2023/08/06 09:59:11;;;;;;;7.68;2.65;;;;;;;;;;4894855;29;20048;-82
2023/08/06 10:01:37;;;;;;;11.98;3.20;;;;;;;;;;4896338;29;20072;-80
2023/08/06 10:04:04;;;;;;;8.20;2.28;;;;;;;;;;4903914;29;20044;-80
2023/08/06 10:06:33;;;;;;;12.00;2.45;;;;;;;;;;4914340;29;20048;-82
2023/08/06 10:09:01;;;;;;;12.93;3.13;;;;;;;;;;4914300;29;20044;-83
2023/08/06 10:11:28;;;;;;;13.82;2.50;;;;;;;;;;4914125;29;20078;-83
2023/08/06 10:14:23;;;;;;;11.02;2.53;;;;;;;;;;4914386;29;20105;-84
2023/08/06 10:16:51;;;;;;;12.35;2.63;;;;;;;;;;4900823;29;20048;-84
2023/08/06 10:19:18;;;;;;;8.82;2.40;;;;;;;;;;4913804;29;20066;-85
2023/08/06 10:22:13;;;;;;;7.20;2.25;;;;;;;;;;4914012;29;20060;-83
2023/08/06 10:24:51;;;;;;;11.98;2.78;;;;;;;;;;4914227;29;20059;-85
2023/08/06 10:27:33;;;;;;;8.35;1.83;;;;;;;;;;4895474;29;20080;-86
2023/08/06 10:30:26;;;;;;;10.85;2.35;;;;;;;;;;4903501;29;20414;-87
2023/08/06 10:33:04;;;;;;;11.88;3.05;;;;;;;;;;4911518;29;20505;-87
2023/08/06 10:35:30;;;;;;;8.73;2.25;;;;;;;;;;4897380;29;20055;-86
2023/08/06 10:38:02;;;;;;;6.53;2.13;;;;;;;;;;4913941;29;20489;-86
2023/08/06 10:40:29;;;;;;;13.60;2.83;;;;;;;;;;4913692;29;20048;-87
2023/08/06 10:42:54;;;;;;;8.48;2.38;;;;;;;;;;4914164;29;20058;-88
2023/08/06 10:45:21;;;;;;;9.55;2.17;;;;;;;;;;4915179;29;20048;-86
2023/08/06 10:47:46;;;;;;;10.73;2.60;;;;;;;;;;4914978;29;20476;-87
2023/08/06 10:50:14;;;;;;;10.85;2.10;;;;;;;;;;4914457;29;20134;-88
2023/08/06 10:52:40;;;;;;;6.55;2.20;;;;;;;;;;4910515;29;20044;-87
2023/08/06 10:55:05;;;;;;;11.18;2.30;;;;;;;;;;4911199;29;20064;-85
2023/08/06 10:57:31;;;;;;;5.15;1.92;;;;;;;;;;4896802;29;20131;-85
2023/08/06 10:59:56;;;;;;;10.35;2.30;;;;;;;;;;4904500;29;20108;-86
2023/08/06 11:02:22;;;;;;;11.27;2.10;;;;;;;;;;4910781;29;20048;-86
2023/08/06 11:04:48;;;;;;;8.30;1.95;;;;;;;;;;4913582;29;20040;-86
2023/08/06 11:07:13;;;;;;;9.82;2.30;;;;;;;;;;4913449;29;20095;-88
2023/08/06 11:09:39;;;;;;;9.18;2.22;;;;;;;;;;4913245;29;20036;-86
2023/08/06 11:12:10;;;;;;;8.65;2.05;;;;;;;;;;4913346;29;20453;-85
2023/08/06 11:14:36;;;;;;;7.65;1.90;;;;;;;;;;4903254;29;20070;-85
2023/08/06 11:17:01;;;;;;;6.78;1.98;;;;;;;;;;4914393;29;20040;-87
2023/08/06 11:19:27;;;;;;;7.28;1.92;;;;;;;;;;4896929;29;20103;-86
2023/08/06 11:21:52;;;;;;;7.15;1.80;;;;;;;;;;4914278;29;20115;-89
2023/08/06 11:24:18;;;;;;;9.15;2.35;;;;;;;;;;4896356;29;20454;-86
2023/08/06 11:26:44;;;;;;;7.93;1.92;;;;;;;;;;4914605;29;20055;-87
2023/08/06 11:29:10;;;;;;;10.18;2.00;;;;;;;;;;4896787;29;20079;-86
2023/08/06 11:31:36;;;;;;;7.20;1.80;;;;;;;;;;4914127;29;20052;-87
2023/08/06 11:34:01;;;;;;;7.03;1.90;;;;;;;;;;4913607;29;20140;-86
2023/08/06 11:36:34;;;;;;;4.40;1.33;;;;;;;;;;4914174;29;20059;-86
2023/08/06 11:39:00;;;;;;;6.05;1.50;;;;;;;;;;4913950;29;20048;-85
2023/08/06 11:41:28;;;;;;;5.85;2.03;;;;;;;;;;4913406;29;20513;-87
2023/08/06 11:43:53;;;;;;;7.60;2.33;;;;;;;;;;4914230;29;20505;-86
2023/08/06 11:46:19;;;;;;;8.65;2.95;;;;;;;;;;4908302;29;20300;-85
2023/08/06 11:48:58;;;;;;;7.32;2.30;;;;;;;;;;4903767;29;20131;-85
2023/08/06 11:51:27;;;;;;;8.90;2.33;;;;;;;;;;4898907;29;20052;-85
2023/08/06 11:53:57;;;;;;;6.72;2.08;;;;;;;;;;4917338;29;20044;-85
2023/08/06 11:56:22;;;;;;;9.35;2.42;;;;;;;;;;4917187;29;20044;-84
2023/08/06 11:58:48;;;;;;;12.35;2.20;;;;;;;;;;4906258;29;20176;-84
2023/08/06 12:01:13;;;;;;;10.27;2.17;;;;;;;;;;4917041;29;20103;-85
2023/08/06 12:03:40;;;;;;;6.70;2.20;;;;;;;;;;4916541;29;20044;-86
2023/08/06 12:06:07;;;;;;;7.53;2.10;;;;;;;;;;4898529;29;20048;-86
2023/08/06 12:08:33;;;;;;;7.32;1.88;;;;;;;;;;4898883;29;20420;-86
2023/08/06 12:10:58;;;;;;;6.55;1.92;;;;;;;;;;4898577;29;20045;-84
2023/08/06 12:13:24;;;;;;;9.35;2.67;;;;;;;;;;4898816;29;20494;-86
2023/08/06 12:15:49;;;;;;;11.80;2.40;;;;;;;;;;4896990;29;20137;-85
2023/08/06 12:18:14;;;;;;;6.88;2.00;;;;;;;;;;4898447;29;20051;-86
2023/08/06 12:20:40;;;;;;;8.93;1.90;;;;;;;;;;4898863;29;20128;-86
2023/08/06 12:23:05;;;;;;;8.35;2.10;;;;;;;;;;4897957;29;20049;-87
2023/08/06 12:25:30;;;;;;;8.85;2.05;;;;;;;;;;4898670;29;20461;-87
2023/08/06 12:27:56;;;;;;;7.80;1.80;;;;;;;;;;4897312;29;20049;-87
2023/08/06 12:30:22;;;;;;;10.35;2.05;;;;;;;;;;4897921;29;20076;-86
2023/08/06 12:32:47;;;;;;;6.57;2.05;;;;;;;;;;4915529;29;20524;-87
2023/08/06 12:35:14;;;;;;;10.85;2.00;;;;;;;;;;4916592;29;20044;-87
2023/08/06 12:37:39;;;;;;;6.75;2.05;;;;;;;;;;4917347;29;20055;-86
2023/08/06 12:40:05;;;;;;;8.40;1.80;;;;;;;;;;4917249;29;20044;-87
2023/08/06 12:42:30;;;;;;;11.85;2.10;;;;;;;;;;4897923;29;20044;-86
2023/08/06 12:44:56;;;;;;;7.60;1.60;;;;;;;;;;4906966;29;20704;-86
2023/08/06 12:47:21;;;;;;;12.18;1.90;;;;;;;;;;4909019;29;20461;-86
2023/08/06 12:49:46;;;;;;;7.90;1.83;;;;;;;;;;4916042;29;20076;-86
2023/08/06 12:52:14;;;;;;;10.43;2.58;;;;;;;;;;4915522;29;20044;-88
2023/08/06 12:54:40;;;;;;;7.30;1.83;;;;;;;;;;4898837;29;20095;-86
2023/08/06 12:57:06;;;;;;;6.45;1.33;;;;;;;;;;4916358;29;20501;-87
2023/08/06 12:59:33;;;;;;;10.15;2.30;;;;;;;;;;4916510;29;20519;-86
2023/08/06 13:01:58;;;;;;;10.00;1.65;;;;;;;;;;4915397;29;20048;-87
2023/08/06 13:04:24;;;;;;;5.85;1.40;;;;;;;;;;4916011;29;20098;-86
2023/08/06 13:06:49;;;;;;;11.00;1.90;;;;;;;;;;4916528;29;20044;-87
2023/08/06 13:09:15;;;;;;;6.18;1.50;;;;;;;;;;4915574;29;20063;-87
2023/08/06 13:11:41;;;;;;;7.72;1.75;;;;;;;;;;4916194;29;20059;-85
2023/08/06 13:14:10;;;;;;;6.00;1.65;;;;;;;;;;4915674;29;20526;-86
2023/08/06 13:16:37;;;;;;;5.40;1.60;;;;;;;;;;4916111;29;20055;-87
2023/08/06 13:19:04;;;;;;;6.85;1.80;;;;;;;;;;4915703;29;20343;-85
2023/08/06 13:21:58;;;;;;;7.75;1.80;;;;;;;;;;4915592;29;20067;-86
2023/08/06 13:24:24;;;;;;;6.05;1.33;;;;;;;;;;4915173;29;20056;-87
2023/08/06 13:26:49;;;;;;;8.70;2.00;;;;;;;;;;4915445;29;20048;-87
2023/08/06 13:29:14;;;;;;;9.68;1.60;;;;;;;;;;4915173;29;20470;-86
2023/08/06 13:31:40;;;;;;;5.65;1.77;;;;;;;;;;4916050;29;20584;-86
2023/08/06 13:34:05;;;;;;;7.45;1.77;;;;;;;;;;4915099;29;20044;-86
2023/08/06 13:36:31;;;;;;;7.43;1.83;;;;;;;;;;4898095;29;20501;-86
2023/08/06 13:38:56;;;;;;;6.53;1.48;;;;;;;;;;4916215;29;20040;-86
2023/08/06 13:41:22;;;;;;;4.70;1.40;;;;;;;;;;4913403;29;20066;-85
2023/08/06 13:43:48;;;;;;;5.20;1.40;;;;;;;;;;4914599;29;20474;-84
2023/08/06 13:46:17;;;;;;;6.13;1.30;;;;;;;;;;4913826;29;20084;-82
2023/08/06 13:48:44;;;;;;;4.18;1.58;;;;;;;;;;4897646;29;20428;-82
2023/08/06 13:51:11;;;;;;;5.80;1.77;;;;;;;;;;4914254;29;20044;-83
2023/08/06 13:53:36;;;;;;;9.70;1.88;;;;;;;;;;4915010;29;20055;-83
2023/08/06 13:56:02;;;;;;;7.15;1.75;;;;;;;;;;4914127;29;20405;-81
2023/08/06 13:58:28;;;;;;;6.50;1.42;;;;;;;;;;4911478;29;20051;-81
2023/08/06 14:00:54;;;;;;;6.93;0.98;;;;;;;;;;4912150;29;21120;-82
2023/08/06 14:03:20;;;;;;;7.35;1.50;;;;;;;;;;4914299;29;20051;-82
2023/08/06 14:05:45;;;;;;;4.13;1.17;;;;;;;;;;4914499;29;20063;-82
2023/08/06 14:08:10;;;;;;;5.68;1.40;;;;;;;;;;4911759;29;20044;-82
2023/08/06 14:10:36;;;;;;;6.80;1.35;;;;;;;;;;4914323;29;20052;-83
2023/08/06 14:13:01;;;;;;;6.55;1.60;;;;;;;;;;4913862;29;20500;-83
2023/08/06 14:15:27;;;;;;;4.85;1.30;;;;;;;;;;4914001;29;20059;-83
2023/08/06 14:17:52;;;;;;;7.93;1.63;;;;;;;;;;4915415;29;20040;-81
2023/08/06 14:20:18;;;;;;;5.82;1.35;;;;;;;;;;4914169;29;20056;-82
2023/08/06 14:22:43;;;;;;;4.20;1.40;;;;;;;;;;4914913;29;20486;-81
2023/08/06 14:25:08;;;;;;;8.20;1.70;;;;;;;;;;4913947;29;20040;-82
2023/08/06 14:27:34;;;;;;;7.80;1.80;;;;;;;;;;4914557;29;20044;-82
2023/08/06 14:30:00;;;;;;;4.35;1.42;;;;;;;;;;4913290;29;20044;-81